Terminal Aerodrome Forecast
Issued by NWS

Home | Current Version | Previous Version | Text Only | Print | Product List | Glossary On
Versions: 1 2 3 4 5 6 7 8 9 10 11 12 13 14 15 16 17 18 19
346
FTUS41 KPBZ 191734
TAFAGC
TAF
KAGC 191734Z 1918/2018 26010KT P6SM SKC
     FM200300 32003KT P6SM FEW010
     FM201500 00000KT P6SM FEW250=

USA.gov is the U.S. government's official web portal to all federal, state and local government web resources and services.